createdAt,value
2023-01-28T00:03:33.463Z,100.00
2023-01-28T00:11:12.232Z,100.00
2023-01-28T00:18:47.746Z,100.00
2023-01-28T00:26:22.283Z,100.00
2023-01-28T00:33:58.816Z,100.00
2023-01-28T00:41:32.913Z,100.00
2023-01-28T00:49:07.928Z,100.00
2023-01-28T00:56:41.703Z,100.00
2023-01-28T01:04:26.941Z,100.00
2023-01-28T01:12:03.063Z,100.00
2023-01-28T01:19:39.519Z,100.00
2023-01-28T01:27:13.347Z,100.00
2023-01-28T01:34:48.554Z,100.00
2023-01-28T01:42:23.254Z,100.00
2023-01-28T01:50:00.967Z,100.00
2023-01-28T01:57:37.207Z,100.00
2023-01-28T02:05:16.075Z,100.00
2023-01-28T02:12:54.362Z,100.00
2023-01-28T02:20:41.953Z,100.00
2023-01-28T02:28:25.876Z,100.00
2023-01-28T02:36:09.222Z,100.00
2023-01-28T02:43:46.455Z,100.00
2023-01-28T02:51:33.770Z,100.00
2023-01-28T02:59:32.202Z,100.00
2023-01-28T03:07:10.942Z,100.00
2023-01-28T03:15:07.710Z,100.00
2023-01-28T03:23:06.332Z,100.00
2023-01-28T03:31:04.390Z,100.00
2023-01-28T03:38:43.046Z,100.00
2023-01-28T03:46:19.064Z,100.00
2023-01-28T03:53:53.017Z,100.00
2023-01-28T04:01:28.249Z,100.00
2023-01-28T04:09:02.388Z,100.00
2023-01-28T04:16:37.310Z,100.00
2023-01-28T04:24:11.399Z,100.00
2023-01-28T04:31:46.528Z,100.00
2023-01-28T04:39:20.254Z,100.00
2023-01-28T04:46:55.387Z,100.00
2023-01-28T04:54:29.522Z,100.00
2023-01-28T05:02:04.895Z,100.00
2023-01-28T05:09:38.745Z,100.00
2023-01-28T05:17:13.931Z,100.00
2023-01-28T05:24:49.180Z,100.00
2023-01-28T05:32:24.431Z,100.00
2023-01-28T05:39:58.531Z,100.00
2023-01-28T05:47:34.387Z,100.00
2023-01-28T05:55:09.142Z,100.00
2023-01-28T06:02:44.699Z,100.00
2023-01-28T06:10:18.613Z,100.00
2023-01-28T06:17:53.757Z,100.00
2023-01-28T06:25:27.564Z,100.00
2023-01-28T06:33:02.961Z,99.76
2023-01-28T06:40:36.996Z,100.00
2023-01-28T06:48:12.564Z,100.00
2023-01-28T06:55:46.372Z,100.00
2023-01-28T07:03:21.894Z,95.62
2023-01-28T07:10:55.774Z,89.37
2023-01-28T07:18:31.390Z,91.42
2023-01-28T07:26:05.881Z,92.33
2023-01-28T07:33:41.160Z,94.49
2023-01-28T07:41:15.176Z,93.92
2023-01-28T07:48:50.329Z,94.73
2023-01-28T07:56:24.478Z,94.57
2023-01-28T08:03:59.457Z,92.13
2023-01-28T08:11:33.886Z,90.65
2023-01-28T08:19:09.323Z,90.57
2023-01-28T08:26:44.932Z,89.74
2023-01-28T08:34:20.122Z,88.03
2023-01-28T08:41:54.204Z,88.52
2023-01-28T08:49:29.635Z,86.25
2023-01-28T08:57:04.400Z,85.56
2023-01-28T09:04:39.957Z,84.93
2023-01-28T09:12:13.762Z,82.29
2023-01-28T09:19:49.067Z,84.37
2023-01-28T09:27:22.786Z,81.79
2023-01-28T09:34:58.140Z,82.58
2023-01-28T09:42:51.416Z,81.68
2023-01-28T09:50:32.491Z,79.38
2023-01-28T09:58:09.258Z,79.30
2023-01-28T10:05:54.540Z,79.75
2023-01-28T10:13:37.848Z,80.57
2023-01-28T10:21:19.951Z,79.97
2023-01-28T10:29:01.714Z,79.28
2023-01-28T10:36:36.893Z,79.58
2023-01-28T10:44:17.964Z,76.51
2023-01-28T10:51:53.150Z,78.45
2023-01-28T10:59:29.957Z,79.55
2023-01-28T11:07:07.112Z,80.25
2023-01-28T11:14:51.214Z,80.98
2023-01-28T11:22:33.610Z,81.73
2023-01-28T11:30:22.249Z,81.63
2023-01-28T11:37:58.018Z,81.87
2023-01-28T11:45:40.988Z,82.15
2023-01-28T11:53:51.611Z,81.90
2023-01-28T12:01:34.445Z,82.34
2023-01-28T12:09:18.727Z,81.61
2023-01-28T12:17:02.439Z,82.00
2023-01-28T12:25:15.638Z,81.61
2023-01-28T12:33:06.177Z,81.13
2023-01-28T12:40:51.327Z,80.02
2023-01-28T12:48:33.850Z,80.02
2023-01-28T12:56:15.715Z,79.26
2023-01-28T13:03:55.522Z,79.54
2023-01-28T13:11:38.407Z,78.15
2023-01-28T13:19:25.167Z,78.33
2023-01-28T13:27:11.007Z,75.42
2023-01-28T13:34:45.074Z,77.47
2023-01-28T13:42:36.305Z,79.69
2023-01-28T13:50:18.638Z,79.30
2023-01-28T13:58:34.820Z,78.14
2023-01-28T14:06:50.812Z,78.75
2023-01-28T14:14:45.240Z,75.04
2023-01-28T14:22:21.861Z,74.93
2023-01-28T14:30:08.441Z,72.77
2023-01-28T14:37:42.560Z,73.63
2023-01-28T14:45:31.505Z,75.04
2023-01-28T14:53:27.417Z,75.01
2023-01-28T15:01:02.958Z,75.22
2023-01-28T15:08:38.018Z,76.52
2023-01-28T15:16:20.637Z,75.28
2023-01-28T15:23:57.644Z,75.48
2023-01-28T15:31:35.041Z,76.99
2023-01-28T15:39:16.266Z,79.06
2023-01-28T15:46:51.404Z,79.69
2023-01-28T15:54:26.323Z,80.15
2023-01-28T16:02:23.294Z,81.07
2023-01-28T16:10:00.728Z,77.48
2023-01-28T16:17:43.336Z,77.42
2023-01-28T16:25:37.060Z,78.40
2023-01-28T16:33:20.352Z,79.55
2023-01-28T16:40:54.166Z,79.04
2023-01-28T16:48:30.532Z,78.88
2023-01-28T16:56:07.090Z,79.11
2023-01-28T17:03:43.548Z,78.70
2023-01-28T17:11:18.074Z,79.35
2023-01-28T17:18:53.754Z,79.37
2023-01-28T17:26:28.952Z,79.75
2023-01-28T17:34:06.834Z,78.89
2023-01-28T17:41:40.641Z,79.63
2023-01-28T17:49:16.305Z,78.71
2023-01-28T17:56:51.064Z,79.64
2023-01-28T18:04:26.565Z,79.43
2023-01-28T18:12:00.490Z,79.44
2023-01-28T18:19:36.185Z,79.28
2023-01-28T18:27:09.950Z,80.33
2023-01-28T18:34:45.238Z,80.56
2023-01-28T18:42:19.011Z,81.10
2023-01-28T18:49:54.260Z,82.10
2023-01-28T18:57:28.353Z,82.68
2023-01-28T19:05:03.565Z,82.75
2023-01-28T19:12:37.358Z,84.65
2023-01-28T19:20:13.832Z,85.39
2023-01-28T19:27:47.803Z,86.26
2023-01-28T19:35:24.187Z,85.84
2023-01-28T19:42:58.059Z,87.05
2023-01-28T19:50:33.344Z,87.59
2023-01-28T19:58:07.270Z,88.03
2023-01-28T20:05:42.521Z,89.03
2023-01-28T20:13:16.891Z,88.64
2023-01-28T20:20:54.903Z,89.39
2023-01-28T20:28:28.957Z,89.43
2023-01-28T20:36:05.118Z,89.96
2023-01-28T20:43:40.664Z,90.40
2023-01-28T20:51:17.776Z,91.89
2023-01-28T20:58:56.808Z,92.24
2023-01-28T21:06:32.311Z,93.33
2023-01-28T21:14:06.611Z,93.54
2023-01-28T21:21:42.974Z,93.75
2023-01-28T21:29:18.800Z,94.10
2023-01-28T21:36:55.335Z,94.27
2023-01-28T21:44:29.133Z,94.67
2023-01-28T21:52:04.243Z,95.13
2023-01-28T21:59:40.412Z,95.72
2023-01-28T22:07:17.492Z,97.00
2023-01-28T22:14:51.635Z,97.75
2023-01-28T22:22:26.591Z,98.94
2023-01-28T22:30:00.420Z,99.34
2023-01-28T22:37:35.623Z,99.53
2023-01-28T22:45:10.705Z,99.88
2023-01-28T22:52:45.836Z,100.00
2023-01-28T23:00:21.202Z,100.00
2023-01-28T23:08:09.971Z,100.00
2023-01-28T23:16:01.615Z,100.00
2023-01-28T23:23:54.351Z,100.00
2023-01-28T23:31:28.331Z,100.00
2023-01-28T23:39:03.486Z,100.00
2023-01-28T23:46:39.716Z,100.00
2023-01-28T23:54:15.314Z,100.00
